createdAt,value
2018-12-31T00:01:28.471Z,6.50
2018-12-31T00:03:57.033Z,6.50
2018-12-31T00:06:25.686Z,6.50
2018-12-31T00:08:54.248Z,6.50
2018-12-31T00:11:22.821Z,6.50
2018-12-31T00:13:51.436Z,6.50
2018-12-31T00:16:19.996Z,6.50
2018-12-31T00:18:48.571Z,6.60
2018-12-31T00:21:17.190Z,6.60
2018-12-31T00:23:46.021Z,6.70
2018-12-31T00:26:14.593Z,6.70
2018-12-31T00:28:43.209Z,6.60
2018-12-31T00:31:11.769Z,6.60
2018-12-31T00:33:40.413Z,6.70
2018-12-31T00:36:09.001Z,6.70
2018-12-31T00:38:37.568Z,6.70
2018-12-31T00:41:06.184Z,6.70
2018-12-31T00:43:34.751Z,6.70
2018-12-31T00:46:03.308Z,6.70
2018-12-31T00:48:31.912Z,6.70
2018-12-31T00:51:00.477Z,6.70
2018-12-31T00:53:29.045Z,6.70
2018-12-31T00:55:57.652Z,6.70
2018-12-31T00:58:26.639Z,6.70
2018-12-31T01:00:55.464Z,6.70
2018-12-31T01:03:24.144Z,6.80
2018-12-31T01:05:52.716Z,6.80
2018-12-31T01:08:21.284Z,6.80
2018-12-31T01:10:49.877Z,6.80
2018-12-31T01:13:18.433Z,6.80
2018-12-31T01:15:47.174Z,6.90
2018-12-31T01:18:15.733Z,6.90
2018-12-31T01:20:44.296Z,6.90
2018-12-31T01:23:12.913Z,6.90
2018-12-31T01:25:43.167Z,7.00
2018-12-31T01:28:11.832Z,7.00
2018-12-31T01:30:40.436Z,7.00
2018-12-31T01:33:09.000Z,7.00
2018-12-31T01:35:37.565Z,7.00
2018-12-31T01:38:06.172Z,7.00
2018-12-31T01:40:34.769Z,7.00
2018-12-31T01:43:03.333Z,7.00
2018-12-31T01:45:31.944Z,7.00
2018-12-31T01:48:00.575Z,7.00
2018-12-31T01:50:29.785Z,6.90
2018-12-31T01:52:58.403Z,6.90
2018-12-31T01:55:26.960Z,6.90
2018-12-31T01:57:55.534Z,6.90
2018-12-31T02:00:24.128Z,6.90
2018-12-31T02:02:52.699Z,6.90
2018-12-31T02:05:21.381Z,6.90
2018-12-31T02:07:49.984Z,6.90
2018-12-31T02:10:18.549Z,6.80
2018-12-31T02:12:47.121Z,6.80
2018-12-31T02:15:15.732Z,6.80
2018-12-31T02:17:44.284Z,6.80
2018-12-31T02:20:12.921Z,6.80
2018-12-31T02:22:41.528Z,6.80
2018-12-31T02:25:10.096Z,6.80
2018-12-31T02:27:38.665Z,6.90
2018-12-31T02:30:07.341Z,6.80
2018-12-31T02:32:35.976Z,6.80
2018-12-31T02:35:04.988Z,6.80
2018-12-31T02:37:33.585Z,6.80
2018-12-31T02:40:02.154Z,6.70
2018-12-31T02:42:30.714Z,6.70
2018-12-31T02:45:00.107Z,6.70
2018-12-31T02:47:28.669Z,6.70
2018-12-31T02:49:57.233Z,6.70
2018-12-31T02:52:25.850Z,6.70
2018-12-31T02:54:54.533Z,6.70
2018-12-31T02:57:23.097Z,6.70
2018-12-31T02:59:51.714Z,6.70
2018-12-31T03:02:20.278Z,6.70
2018-12-31T03:04:48.878Z,6.70
2018-12-31T03:07:17.484Z,6.70
2018-12-31T03:09:46.045Z,6.70
2018-12-31T03:12:14.614Z,6.60
2018-12-31T03:14:43.220Z,6.70
2018-12-31T03:17:11.776Z,6.70
2018-12-31T03:19:40.491Z,6.70
2018-12-31T03:22:09.080Z,6.70
2018-12-31T03:24:37.816Z,6.80
2018-12-31T03:27:06.377Z,6.70
2018-12-31T03:29:34.987Z,6.70
2018-12-31T03:32:03.550Z,6.70
2018-12-31T03:34:32.113Z,6.80
2018-12-31T03:37:00.773Z,6.80
2018-12-31T03:39:29.334Z,6.90
2018-12-31T03:41:57.896Z,6.90
2018-12-31T03:44:27.265Z,6.90
2018-12-31T03:46:55.756Z,6.90
2018-12-31T03:49:24.317Z,6.90
2018-12-31T03:51:52.921Z,6.90
2018-12-31T03:54:21.481Z,6.90
2018-12-31T03:56:50.488Z,6.90
2018-12-31T03:59:19.056Z,6.90
2018-12-31T04:01:47.643Z,6.90
2018-12-31T04:04:16.204Z,7.00
2018-12-31T04:06:44.829Z,7.00
2018-12-31T04:09:13.465Z,7.00
2018-12-31T04:11:42.028Z,6.90
2018-12-31T04:14:10.637Z,6.80
2018-12-31T04:16:39.197Z,6.70
2018-12-31T04:19:07.775Z,6.70
2018-12-31T04:21:36.386Z,6.60
2018-12-31T04:24:04.939Z,6.60
2018-12-31T04:26:33.502Z,6.50
2018-12-31T04:29:02.163Z,6.60
2018-12-31T04:31:31.431Z,6.60
2018-12-31T04:33:59.992Z,6.70
2018-12-31T04:36:28.601Z,6.60
2018-12-31T04:38:57.161Z,6.70
2018-12-31T04:41:25.743Z,6.70
2018-12-31T04:43:54.353Z,6.80
2018-12-31T04:46:22.924Z,6.80
2018-12-31T04:48:51.520Z,6.80
2018-12-31T04:51:20.132Z,6.80
2018-12-31T04:53:48.699Z,6.70
2018-12-31T04:56:17.260Z,6.70
2018-12-31T04:58:45.873Z,6.70
2018-12-31T05:01:14.434Z,6.70
2018-12-31T05:03:42.999Z,6.70
2018-12-31T05:06:11.610Z,6.70
2018-12-31T05:08:40.169Z,6.70
2018-12-31T05:11:09.096Z,6.70
2018-12-31T05:13:37.731Z,6.70
2018-12-31T05:16:06.305Z,6.60
2018-12-31T05:18:34.944Z,6.70
2018-12-31T05:21:03.623Z,6.70
2018-12-31T05:23:32.395Z,6.80
2018-12-31T05:26:01.871Z,6.80
2018-12-31T05:28:30.481Z,6.70
2018-12-31T05:30:59.054Z,6.70
2018-12-31T05:33:27.693Z,6.80
2018-12-31T05:35:56.304Z,6.70
2018-12-31T05:38:24.889Z,6.70
2018-12-31T05:40:53.454Z,6.70
2018-12-31T05:43:22.070Z,6.70
2018-12-31T05:45:50.682Z,6.70
2018-12-31T05:48:19.209Z,6.70
2018-12-31T05:50:47.873Z,6.70
2018-12-31T05:53:16.401Z,6.70
2018-12-31T05:55:44.966Z,6.70
2018-12-31T05:58:13.583Z,6.70
2018-12-31T06:00:42.266Z,6.70
2018-12-31T06:03:10.841Z,6.70
2018-12-31T06:05:39.444Z,6.70
2018-12-31T06:08:08.014Z,6.70
2018-12-31T06:10:36.590Z,6.70
2018-12-31T06:13:05.212Z,6.50
2018-12-31T06:15:33.776Z,6.70
2018-12-31T06:18:02.348Z,6.70
2018-12-31T06:20:30.965Z,6.70
2018-12-31T06:22:59.531Z,6.70
2018-12-31T06:25:28.129Z,6.70
2018-12-31T06:27:56.732Z,6.80
2018-12-31T06:30:25.304Z,6.70
2018-12-31T06:32:53.857Z,6.70
2018-12-31T06:35:22.482Z,6.70
2018-12-31T06:37:51.037Z,6.70
2018-12-31T06:40:19.598Z,6.70
2018-12-31T06:42:48.212Z,6.70
2018-12-31T06:45:16.778Z,6.70
2018-12-31T06:47:45.344Z,6.70
2018-12-31T06:50:13.949Z,6.80
2018-12-31T06:52:42.513Z,6.80
2018-12-31T06:55:11.072Z,6.80
2018-12-31T06:57:39.690Z,6.90
2018-12-31T07:00:08.318Z,6.90
2018-12-31T07:02:36.883Z,7.00
2018-12-31T07:05:05.567Z,7.00
2018-12-31T07:07:34.127Z,7.00
2018-12-31T07:10:02.914Z,7.00
2018-12-31T07:12:31.516Z,7.00
2018-12-31T07:15:00.128Z,7.00
2018-12-31T07:17:28.685Z,7.00
2018-12-31T07:19:57.289Z,7.00
2018-12-31T07:22:25.847Z,7.10
2018-12-31T07:24:54.412Z,7.10
2018-12-31T07:27:23.041Z,7.10
2018-12-31T07:29:51.595Z,7.10
2018-12-31T07:32:20.152Z,7.10
2018-12-31T07:34:48.770Z,7.20
2018-12-31T07:37:17.332Z,7.20
2018-12-31T07:39:45.897Z,7.30
2018-12-31T07:42:14.501Z,7.20
2018-12-31T07:44:43.065Z,7.20
2018-12-31T07:47:11.628Z,7.20
2018-12-31T07:49:40.360Z,7.20
2018-12-31T07:52:08.917Z,7.20
2018-12-31T07:54:37.477Z,7.20
2018-12-31T07:57:06.093Z,7.20
2018-12-31T07:59:34.665Z,7.20
2018-12-31T08:02:03.412Z,7.20
2018-12-31T08:04:32.024Z,7.30
2018-12-31T08:07:00.702Z,7.30
2018-12-31T08:09:29.278Z,7.40
2018-12-31T08:11:57.877Z,7.40
2018-12-31T08:14:26.444Z,7.40
2018-12-31T08:16:55.004Z,7.40
2018-12-31T08:19:23.614Z,7.40
2018-12-31T08:21:52.300Z,7.40
2018-12-31T08:24:20.988Z,7.40
2018-12-31T08:26:49.602Z,7.40
2018-12-31T08:29:18.169Z,7.40
2018-12-31T08:31:46.725Z,7.50
2018-12-31T08:34:15.337Z,7.50
2018-12-31T08:36:43.905Z,7.50
2018-12-31T08:39:12.486Z,7.50
2018-12-31T08:41:41.095Z,7.50
2018-12-31T08:44:09.725Z,7.50
2018-12-31T08:46:38.285Z,7.50
2018-12-31T08:49:06.897Z,7.50
2018-12-31T08:51:35.481Z,7.60
2018-12-31T08:54:04.044Z,7.60
2018-12-31T08:56:33.636Z,7.70
2018-12-31T08:59:02.228Z,7.70
2018-12-31T09:01:30.801Z,7.80
2018-12-31T09:03:59.413Z,7.70
2018-12-31T09:06:27.976Z,7.70
2018-12-31T09:08:56.546Z,7.70
2018-12-31T09:11:25.161Z,7.80
2018-12-31T09:13:53.744Z,7.80
2018-12-31T09:16:22.313Z,7.80
2018-12-31T09:18:50.915Z,7.90
2018-12-31T09:21:19.485Z,7.90
2018-12-31T09:23:48.052Z,7.90
2018-12-31T09:26:16.661Z,7.90
2018-12-31T09:28:45.216Z,7.90
2018-12-31T09:31:13.780Z,7.90
2018-12-31T09:33:42.419Z,8.00
2018-12-31T09:36:10.989Z,8.00
2018-12-31T09:38:39.560Z,7.90
2018-12-31T09:41:08.161Z,8.00
2018-12-31T09:43:36.753Z,7.90
2018-12-31T09:46:05.321Z,7.90
2018-12-31T09:48:34.040Z,8.00
2018-12-31T09:51:02.643Z,8.00
2018-12-31T09:53:31.202Z,8.00
2018-12-31T09:55:59.819Z,8.00
2018-12-31T09:58:28.385Z,8.10
2018-12-31T10:00:56.963Z,8.10
2018-12-31T10:03:25.713Z,8.10
2018-12-31T10:05:54.296Z,8.10
2018-12-31T10:08:22.865Z,8.20
2018-12-31T10:10:51.477Z,8.30
2018-12-31T10:13:20.054Z,8.30
2018-12-31T10:15:48.620Z,8.30
2018-12-31T10:18:17.237Z,8.40
2018-12-31T10:20:45.820Z,8.40
2018-12-31T10:23:14.384Z,8.50
2018-12-31T10:25:43.032Z,8.50
2018-12-31T10:28:11.584Z,8.50
2018-12-31T10:30:40.164Z,8.60
2018-12-31T10:33:08.793Z,8.60
2018-12-31T10:35:37.368Z,8.80
2018-12-31T10:38:05.924Z,9.00
2018-12-31T10:40:35.017Z,8.90
2018-12-31T10:43:04.585Z,8.90
2018-12-31T10:45:33.193Z,8.90
2018-12-31T10:48:01.768Z,8.90
2018-12-31T10:50:30.324Z,8.90
2018-12-31T10:52:58.946Z,8.80
2018-12-31T10:55:27.507Z,8.80
2018-12-31T10:57:56.074Z,8.80
2018-12-31T11:00:24.689Z,8.80
2018-12-31T11:02:54.905Z,8.80
2018-12-31T11:05:23.476Z,8.70
2018-12-31T11:07:52.092Z,8.70
2018-12-31T11:10:20.661Z,8.60
2018-12-31T11:12:49.385Z,8.70
2018-12-31T11:15:18.130Z,8.70
2018-12-31T11:17:46.685Z,8.70
2018-12-31T11:20:15.320Z,8.60
2018-12-31T11:22:43.935Z,8.60
2018-12-31T11:25:12.497Z,8.60
2018-12-31T11:27:41.056Z,8.70
2018-12-31T11:30:09.732Z,8.70
2018-12-31T11:32:38.349Z,8.70
2018-12-31T11:35:07.053Z,8.70
2018-12-31T11:37:35.617Z,8.70
2018-12-31T11:40:04.773Z,8.80
2018-12-31T11:42:33.334Z,8.80
2018-12-31T11:45:01.892Z,8.80
2018-12-31T11:47:30.493Z,8.90
2018-12-31T11:49:59.706Z,9.00
2018-12-31T11:52:28.276Z,9.00
2018-12-31T11:54:56.841Z,9.00
2018-12-31T11:57:25.436Z,9.00
2018-12-31T11:59:54.014Z,8.90
2018-12-31T12:02:23.597Z,8.90
2018-12-31T12:04:52.288Z,9.00
2018-12-31T12:07:20.845Z,9.00
2018-12-31T12:09:49.456Z,9.00
2018-12-31T12:12:18.421Z,9.00
2018-12-31T12:14:46.985Z,9.00
2018-12-31T12:17:15.614Z,9.00
2018-12-31T12:19:44.176Z,9.00
2018-12-31T12:22:12.882Z,9.00
2018-12-31T12:24:41.517Z,9.00
2018-12-31T12:27:10.152Z,9.00
2018-12-31T12:29:38.765Z,9.10
2018-12-31T12:32:07.570Z,9.10
2018-12-31T12:34:36.244Z,9.10
2018-12-31T12:37:05.933Z,9.10
2018-12-31T12:39:34.567Z,9.10
2018-12-31T12:42:03.117Z,9.10
2018-12-31T12:44:31.691Z,9.10
2018-12-31T12:47:00.296Z,9.10
2018-12-31T12:49:28.910Z,9.10
2018-12-31T12:51:57.596Z,9.10
2018-12-31T12:54:26.213Z,9.10
2018-12-31T12:56:54.784Z,9.10
2018-12-31T12:59:23.357Z,9.10
2018-12-31T13:01:52.089Z,9.20
2018-12-31T13:04:20.664Z,9.50
2018-12-31T13:06:49.365Z,9.60
2018-12-31T13:09:17.976Z,9.90
2018-12-31T13:11:46.541Z,10.10
2018-12-31T13:14:15.110Z,10.00
2018-12-31T13:16:43.717Z,9.80
2018-12-31T13:19:12.276Z,9.60
2018-12-31T13:21:40.851Z,9.50
2018-12-31T13:24:09.464Z,9.50
2018-12-31T13:26:43.497Z,9.40
2018-12-31T13:29:08.254Z,9.40
2018-12-31T13:31:36.928Z,9.40
2018-12-31T13:34:06.137Z,9.40
2018-12-31T13:36:34.701Z,9.30
2018-12-31T13:39:05.398Z,9.30
2018-12-31T13:41:33.932Z,9.30
2018-12-31T13:44:02.501Z,9.30
2018-12-31T13:46:31.112Z,9.30
2018-12-31T13:48:59.814Z,9.20
2018-12-31T13:51:28.380Z,9.20
2018-12-31T13:53:56.994Z,9.20
2018-12-31T13:56:25.559Z,9.20
2018-12-31T13:58:54.126Z,9.20
2018-12-31T14:01:22.827Z,9.20
2018-12-31T14:03:52.666Z,9.20
2018-12-31T14:06:21.446Z,9.20
2018-12-31T14:08:50.079Z,9.20
2018-12-31T14:11:19.100Z,9.10
2018-12-31T14:13:47.704Z,9.10
2018-12-31T14:16:16.320Z,9.10
2018-12-31T14:18:44.881Z,9.10
2018-12-31T14:21:13.453Z,9.10
2018-12-31T14:23:42.044Z,9.10
2018-12-31T14:26:10.658Z,9.10
2018-12-31T14:28:39.224Z,9.10
2018-12-31T14:31:08.003Z,9.00
2018-12-31T14:33:36.623Z,9.00
2018-12-31T14:36:05.181Z,9.00
2018-12-31T14:38:33.868Z,9.00
2018-12-31T14:41:02.480Z,9.00
2018-12-31T14:43:31.248Z,9.00
2018-12-31T14:45:59.812Z,9.00
2018-12-31T14:48:28.480Z,9.00
2018-12-31T14:50:57.116Z,9.00
2018-12-31T14:53:25.674Z,9.00
2018-12-31T14:55:54.759Z,9.00
2018-12-31T14:58:23.973Z,9.00
2018-12-31T15:00:52.542Z,9.00
2018-12-31T15:03:21.150Z,8.90
2018-12-31T15:05:50.674Z,9.00
2018-12-31T15:08:19.607Z,9.00
2018-12-31T15:10:48.173Z,8.90
2018-12-31T15:13:16.757Z,8.90
2018-12-31T15:15:45.351Z,8.90
2018-12-31T15:18:14.045Z,8.90
2018-12-31T15:20:42.801Z,8.90
2018-12-31T15:23:11.431Z,8.90
2018-12-31T15:25:40.043Z,8.90
2018-12-31T15:28:08.712Z,8.90
2018-12-31T15:30:37.426Z,8.90
2018-12-31T15:33:06.148Z,8.90
2018-12-31T15:35:35.583Z,8.90
2018-12-31T15:38:05.077Z,9.00
2018-12-31T15:40:33.901Z,9.00
2018-12-31T15:43:02.470Z,9.00
2018-12-31T15:45:31.031Z,9.00
2018-12-31T15:47:59.633Z,9.00
2018-12-31T15:50:28.313Z,9.00
2018-12-31T15:52:56.872Z,9.00
2018-12-31T15:55:25.481Z,9.00
2018-12-31T15:57:54.820Z,8.90
2018-12-31T16:00:23.431Z,9.00
2018-12-31T16:02:52.055Z,9.00
2018-12-31T16:05:20.630Z,9.00
2018-12-31T16:07:49.254Z,9.00
2018-12-31T16:10:17.868Z,9.00
2018-12-31T16:12:46.655Z,9.00
2018-12-31T16:15:15.317Z,9.00
2018-12-31T16:17:43.935Z,9.00
2018-12-31T16:20:12.502Z,9.00
2018-12-31T16:22:41.069Z,9.00
2018-12-31T16:25:10.005Z,9.00
2018-12-31T16:27:38.646Z,9.00
2018-12-31T16:30:07.948Z,9.00
2018-12-31T16:32:36.605Z,9.00
2018-12-31T16:35:05.281Z,9.00
2018-12-31T16:37:34.244Z,9.00
2018-12-31T16:40:02.849Z,9.00
2018-12-31T16:42:31.480Z,9.00
2018-12-31T16:45:00.084Z,9.00
2018-12-31T16:47:28.653Z,9.00
2018-12-31T16:49:57.273Z,9.00
2018-12-31T16:52:25.858Z,9.00
2018-12-31T16:54:55.156Z,9.00
2018-12-31T16:57:23.785Z,9.10
2018-12-31T16:59:52.353Z,9.10
2018-12-31T17:02:20.916Z,9.10
2018-12-31T17:04:49.586Z,9.10
2018-12-31T17:07:18.157Z,9.10
2018-12-31T17:09:46.764Z,9.10
2018-12-31T17:12:15.344Z,9.10
2018-12-31T17:14:43.921Z,9.10
2018-12-31T17:17:12.833Z,9.20
2018-12-31T17:19:41.644Z,9.20
2018-12-31T17:22:10.181Z,9.20
2018-12-31T17:24:38.780Z,9.20
2018-12-31T17:27:07.348Z,9.10
2018-12-31T17:29:36.340Z,9.10
2018-12-31T17:32:04.936Z,9.10
2018-12-31T17:34:33.677Z,9.10
2018-12-31T17:37:02.238Z,9.10
2018-12-31T17:39:30.800Z,9.10
2018-12-31T17:41:59.408Z,9.00
2018-12-31T17:44:27.981Z,9.00
2018-12-31T17:46:56.882Z,9.10
2018-12-31T17:49:25.659Z,9.10
2018-12-31T17:51:55.922Z,9.10
2018-12-31T17:54:24.613Z,9.10
2018-12-31T17:56:53.239Z,9.00
2018-12-31T17:59:21.807Z,9.00
2018-12-31T18:01:50.539Z,9.10
2018-12-31T18:04:19.268Z,9.10
2018-12-31T18:06:47.828Z,9.00
2018-12-31T18:09:16.407Z,9.00
2018-12-31T18:11:45.009Z,9.00
2018-12-31T18:14:13.636Z,9.00
2018-12-31T18:16:42.202Z,9.00
2018-12-31T18:19:10.814Z,9.00
2018-12-31T18:21:39.668Z,9.00
2018-12-31T18:24:08.236Z,9.00
2018-12-31T18:26:36.897Z,9.00
2018-12-31T18:29:05.483Z,9.00
2018-12-31T18:31:34.157Z,9.00
2018-12-31T18:34:03.169Z,9.00
2018-12-31T18:36:31.734Z,9.00
2018-12-31T18:39:00.363Z,9.00
2018-12-31T18:41:29.113Z,9.00
2018-12-31T18:43:57.853Z,9.00
2018-12-31T18:46:26.417Z,9.00
2018-12-31T18:48:55.028Z,9.00
2018-12-31T18:51:23.596Z,9.00
2018-12-31T18:53:52.160Z,9.00
2018-12-31T18:56:20.897Z,8.90
2018-12-31T18:58:49.500Z,8.90
2018-12-31T19:01:18.058Z,9.00
2018-12-31T19:03:46.668Z,8.90
2018-12-31T19:06:15.225Z,8.90
2018-12-31T19:08:43.797Z,8.90
2018-12-31T19:11:12.389Z,8.70
2018-12-31T19:13:41.256Z,8.90
2018-12-31T19:16:09.881Z,8.90
2018-12-31T19:18:38.452Z,8.90
2018-12-31T19:21:07.055Z,8.90
2018-12-31T19:23:36.738Z,8.90
2018-12-31T19:26:05.726Z,9.10
2018-12-31T19:28:34.317Z,9.10
2018-12-31T19:31:03.099Z,9.20
2018-12-31T19:33:31.660Z,9.20
2018-12-31T19:36:00.232Z,9.10
2018-12-31T19:38:28.960Z,9.10
2018-12-31T19:40:58.210Z,9.00
2018-12-31T19:43:26.964Z,9.00
2018-12-31T19:45:55.564Z,9.00
2018-12-31T19:48:24.257Z,9.00
2018-12-31T19:50:52.821Z,9.00
2018-12-31T19:53:21.430Z,9.00
2018-12-31T19:55:49.985Z,9.00
2018-12-31T19:58:18.589Z,9.00
2018-12-31T20:00:47.231Z,9.00
2018-12-31T20:03:15.988Z,9.00
2018-12-31T20:05:44.960Z,9.00
2018-12-31T20:08:13.946Z,9.00
2018-12-31T20:10:42.511Z,9.00
2018-12-31T20:13:11.063Z,9.00
2018-12-31T20:15:39.680Z,9.00
2018-12-31T20:18:08.552Z,9.00
2018-12-31T20:20:37.225Z,9.00
2018-12-31T20:23:05.833Z,8.90
2018-12-31T20:25:34.480Z,8.90
2018-12-31T20:28:03.308Z,8.90
2018-12-31T20:30:31.881Z,8.90
2018-12-31T20:33:00.535Z,8.90
2018-12-31T20:35:29.198Z,8.90
2018-12-31T20:37:58.685Z,8.90
2018-12-31T20:40:27.249Z,8.90
2018-12-31T20:42:55.875Z,8.80
2018-12-31T20:45:24.429Z,8.80
2018-12-31T20:47:53.131Z,8.80
2018-12-31T20:50:21.741Z,8.70
2018-12-31T20:52:50.294Z,8.70
2018-12-31T20:55:18.855Z,8.70
2018-12-31T20:57:47.467Z,8.70
2018-12-31T21:00:16.330Z,8.60
2018-12-31T21:02:44.932Z,8.60
2018-12-31T21:05:13.542Z,8.60
2018-12-31T21:07:42.361Z,8.60
2018-12-31T21:10:11.904Z,8.60
2018-12-31T21:12:40.527Z,8.50
2018-12-31T21:15:09.157Z,8.50
2018-12-31T21:17:37.724Z,8.50
2018-12-31T21:20:08.165Z,8.50
2018-12-31T21:22:36.731Z,8.50
2018-12-31T21:25:05.701Z,8.50
2018-12-31T21:27:34.262Z,8.50
2018-12-31T21:30:02.893Z,8.50
2018-12-31T21:32:31.498Z,8.50
2018-12-31T21:35:00.210Z,8.50
2018-12-31T21:37:28.757Z,8.50
2018-12-31T21:39:57.653Z,8.50
2018-12-31T21:42:26.243Z,8.50
2018-12-31T21:44:54.809Z,8.50
2018-12-31T21:47:23.377Z,8.50
2018-12-31T21:49:51.970Z,8.50
2018-12-31T21:52:20.617Z,8.50
2018-12-31T21:54:49.217Z,8.50
2018-12-31T21:57:18.291Z,8.50
2018-12-31T21:59:46.918Z,8.50
2018-12-31T22:02:15.529Z,8.50
2018-12-31T22:04:44.108Z,8.50
2018-12-31T22:07:12.872Z,8.50
2018-12-31T22:09:41.480Z,8.50
2018-12-31T22:12:10.177Z,8.50
2018-12-31T22:14:38.951Z,8.50
2018-12-31T22:17:07.528Z,8.50
2018-12-31T22:19:36.292Z,8.50
2018-12-31T22:22:04.866Z,8.50
2018-12-31T22:24:33.473Z,8.50
2018-12-31T22:27:02.035Z,8.50
2018-12-31T22:29:30.928Z,8.50
2018-12-31T22:31:59.549Z,8.50
2018-12-31T22:34:28.105Z,8.50
2018-12-31T22:36:56.678Z,8.50
2018-12-31T22:39:25.292Z,8.60
2018-12-31T22:41:53.854Z,8.50
2018-12-31T22:44:22.561Z,8.60
2018-12-31T22:46:51.372Z,8.60
2018-12-31T22:49:19.936Z,8.60
2018-12-31T22:51:48.505Z,8.50
2018-12-31T22:54:17.129Z,8.50
2018-12-31T22:56:45.751Z,8.50
2018-12-31T22:59:14.625Z,8.50
2018-12-31T23:01:43.242Z,8.50
2018-12-31T23:04:11.825Z,8.50
2018-12-31T23:06:40.497Z,8.40
2018-12-31T23:09:10.816Z,8.40
2018-12-31T23:11:39.665Z,8.40
2018-12-31T23:14:08.288Z,8.40
2018-12-31T23:16:36.880Z,8.40
2018-12-31T23:19:05.458Z,8.30
2018-12-31T23:21:34.049Z,8.30
2018-12-31T23:24:02.651Z,8.30
2018-12-31T23:26:31.689Z,8.30
2018-12-31T23:29:00.283Z,8.30
2018-12-31T23:31:28.832Z,8.30
2018-12-31T23:33:57.435Z,8.30
2018-12-31T23:36:26.009Z,8.30
2018-12-31T23:38:54.889Z,8.30
2018-12-31T23:41:23.448Z,8.30
2018-12-31T23:43:52.020Z,8.30
2018-12-31T23:46:21.516Z,8.30
2018-12-31T23:48:50.160Z,8.20
2018-12-31T23:51:19.017Z,8.20
2018-12-31T23:53:47.676Z,8.20
2018-12-31T23:56:16.391Z,8.20
2018-12-31T23:58:44.959Z,8.20
